Aviation Digital Data Service (ADDS)

Output produced by METARs form (1825 UTC 16 August 2018)
found at http://www.aviationweather.gov/adds/metars/
 
OLBA 161800Z 22006KT 9999 FEW027 28/22 Q1010 NOSIG
TAF OLBA 161600Z 1618/1724 23010KT 8000 SCT026 
     BECMG 1703/1706 21015KT 
     TEMPO 1618/1706 5000 BR